Ralston, Canada
Current Conditions -  °F | °C
As of 1:00 PM on Sunday 21 Dec 2014 (Local Time) from CYXH Reporting Station
Drizzle Drizzle  
Wind Chill: 27°   Ceiling: 5500
Heat Index: 37°   Visibility: 15mi
Dew Point: 30°   Wind: 21mph
Humidity: 75%   Direction: 290°WNW
Pressure: 29.31"   Gusts: NA
Location:  50.25°N, 111.17°W
Report Text: CYXH 212000Z 29018KT 15SM -DZ BKN055 BKN075 03/M01 A2931 RMK SC5AC2 PRESRR SLP948
Loading
Personal Weather Stations






























Interactive Weather Map New forecast layout! Learn more

10-Day Weather Forecast

Advertisements
Track Severe Weather on mobile